Search flights

Queen Alia Intl Airport, Amman (OJAI)

Airport Weather & NOTAM's

METAR for:OJAI (Amman/Alia Intl, AM, JO)
Text:OJAI 151800Z 29008KT 5000 HZ NSC 27/17 Q1009 NOSIG
Conditions at:1800 UTC 15 Jul 2024
Temperature: 27.0°C ( 81°F)
Dewpoint: 17.0°C ( 63°F) [RH = 54%]
Pressure (altimeter):29.79 inches Hg (1009.0 mb)
Winds:from the WNW (290 degrees) at 9 MPH (8 knots; 4.1 m/s)
Visibility:3 sm (5 km)
Ceiling:at least 12,000 feet AGL
Clouds:sky clear below 12,000 feet AGL
Weather:HZ (haze)
TAF for:OJAI (Amman/Alia Intl, AM, JO) issued at 1650 UTC 15 Jul 2024
Text:TAF COR OJAI 151650Z 1518/1624 28010KT 5000 HZ NSC
Forecast period:1800 UTC 15 July 2024 to 0500 UTC 16 July 2024
Forecast type:FROM: standard forecast or significant change
Winds:from the W (280 degrees) at 12 MPH (10 knots; 5.1 m/s)
Visibility:3 sm (5 km)
Clouds:missing
Weather:HZ (haze)
Text:BECMG 1605/1607 FEW035
Forecast period:0500 UTC 16 July 2024 to 0000 UTC 17 July 2024
Forecast type:BECOMING: Conditions expected to become as follows by 0700 UTC 16 July 2024
Winds:from the W (280 degrees) at 12 MPH (10 knots; 5.1 m/s)
Visibility:3 sm (5 km)
Ceiling:at least 12,000 feet AGL
Clouds:few clouds at 3500 feet AGL
Weather:HZ (haze)
Text:PROB30
Forecast period:1200 to 1800 UTC 16 July 2024
Forecast type:TEMPORARY: The following changes expected for less than half the time period
Winds:from the WNW (290 degrees) at 21 MPH (18 knots; 9.3 m/s)
Visibility:2.49 sm (4.01 km)
Weather:BLDU (blowing dust)

Live Departures & Arrivals

There are currently no arrivals or departures for this airport.

Departures History (last 12 months)

Flight No. Dest. Aircraft Date
FWM90 ORBI ToLissA319... 2024-07-12 17:48:37
FWM90 KCLE SSG_B748_A... 2024-06-30 22:16:56
FWM90 UUDD ToLissA321... 2024-06-23 14:39:25
FWM90 OJAQ SSG_B748_A... 2024-06-20 09:39:06
FWM90 LTFM Flight Fac... 2024-06-04 10:21:16
FWM90 HESH B737-800X... 2024-06-03 08:03:50
FWM90 HESH B737-800X... 2024-05-30 18:13:33
MEA211 OLBA FenixA320... 2024-05-29 16:19:56
FWM90 RJAA AirbusA350... 2024-05-27 08:30:16
FWM90 DAAG ToLissA321... 2024-05-20 15:42:53
FWM27 ORBI PMDG 777-3... 2024-05-17 20:55:40
FWM90 EGLL ToLissA321... 2024-04-29 14:29:28
FWM90 OJAQ Boeing 737... 2024-04-27 16:50:28
FWM90 HDAM ToLissA320... 2024-04-26 17:24:46
FWM90 LYBE ToLissA321... 2024-04-23 11:33:18
FWM90 EIDW ToLissA320... 2024-04-07 15:32:48
RJA11 OSDI ToLissA319... 2024-04-02 17:43:45
FWM90 OERK SSG_B748_A... 2024-04-02 13:44:59
FWM90 OJAQ Magknight... 2024-03-27 18:03:24
RJA11 OLBA ToLissA319... 2024-03-23 17:19:36
RJA706 OEJN ToLissA320... 2024-03-22 19:46:01
RJA11 OJAQ ToLissA319... 2024-03-21 17:42:32
FWM90 DAAE ToLissA320... 2024-03-21 15:20:29
FWM5C OJAQ Airbus A32... 2024-03-11 18:18:39
FWM90 HESH iniSimulat... 2024-03-07 17:28:38
FWM5C LCLK A300 Passe... 2024-03-04 16:24:24
FWM90 HESH B737-800X... 2024-02-22 15:21:46
FWM5C OJAQ FlyByWire... 2024-02-15 02:55:08
FWM5C OJAQ FlyByWire... 2024-02-14 21:48:51
FWM90 HECA AXP Ryanai... 2024-02-03 17:08:44
FWM90 LTBA ToLissA319... 2024-01-24 15:56:38
FWM90 DTTZ ToLissA319... 2024-01-12 09:33:34
FWM90 OJAQ ToLissA319... 2024-01-12 07:52:52
FWM90 DAAE Boeing 737... 2024-01-11 08:04:07
FWM90 HDAM Boeing 737... 2023-12-30 09:36:27
FWM90 OJAQ ToLissA319... 2023-12-17 08:02:37
FWM90 LIMC B737-800X... 2023-12-02 10:05:36
FWM90 OJAI B737-800X... 2023-12-02 08:49:02
FWM90 OPLA Flight Fac... 2023-11-20 09:18:47
FBA90 OMDB Boeing 737... 2023-11-17 15:43:19
FWM90 LFPG ToLissA320... 2023-10-24 09:20:32
MEA90 OLBA ToLissA319... 2023-10-16 18:12:19
IAW90 ORER Flight Fac... 2023-10-11 15:05:17
FWM90 DAAE Flight Fac... 2023-10-11 10:38:00
FWM90 OJAQ ToLissA319... 2023-09-07 19:14:53
FWM741 OLBA ToLissA320... 2023-09-07 07:41:00
RJA90 ORER Flight Fac... 2023-09-03 15:00:48
FWM741 KJFK Boeing 747... 2023-09-03 03:46:11
RJA90 HECA iniSimulat... 2023-09-02 17:47:24
RJA90 ORMM B737-800X... 2023-09-02 11:59:30
FWM741 OEJN ToLissA320... 2023-09-02 12:04:45
RJA90 OLBA ToLissA321... 2023-09-01 15:43:41
RJA90 EKCH AirbusA350... 2023-09-01 06:49:02
RJA741 LEBL FenixA320_... 2023-08-29 08:07:38
RJA90 OJAQ ToLissA346... 2023-08-18 15:55:28
FWM90 LPMA ToLissA320... 2023-08-11 10:39:21
FWM741 ORNI PMDG 737-6... 2023-08-08 07:29:59
RJA90 KJFK SSG_B748_A... 2023-08-05 06:44:10
FWM90 OEJN AirbusA350... 2023-08-04 07:40:12
FWM7MR OLBA Boeing 737... 2023-08-04 18:15:00
RJA90 LEBL ToLissA321... 2023-08-01 08:01:22
SAV1980 OERK FenixA320_... 2023-07-31 03:41:31
FWM741 OERK ToLissA320... 2023-07-31 10:14:09
FWM06 ORNI ToLissA321... 2023-07-24 05:43:06
FWM90 OEJN AirbusA350... 2023-07-19 06:55:40

Arrivals History (last 12 months)

Flight No. Origin Aircraft Date
FWM90 ORBI ToLissA319... 2024-07-12 20:57:24
FWM90 SAEZ ToLissA346... 2024-07-02 17:12:35
FWM90 OJAQ SSG_B748_A... 2024-06-20 10:49:10
FWM90 HESH ToLissA320... 2024-06-04 10:11:39
FWM90 VQPR ToLissA319... 2024-06-03 23:16:23
FWM90 SAEZ ToLissA346... 2024-06-01 21:00:01
FWM90 TNCM ToLissA346... 2024-05-25 20:39:52
FWM90 OLBA Boeing 737... 2024-04-27 19:55:02
FWM90 OEJN Boeing 737... 2024-04-27 16:47:15
RJA11 OMDB ToLissA321... 2024-04-01 18:19:02
FWM90 OYSN Boeing 737... 2024-03-25 18:47:12
FWM5C OJAQ PMDG 737-9... 2024-03-25 20:57:43
FWM5C OJAM FenixA320... 2024-03-24 22:19:25
FWM90 VQPR B737-800X... 2024-03-04 16:15:07
MEA5C OLBA PMDG 737-6... 2024-02-18 14:42:36
FWM5C OJAQ FlyByWire... 2024-02-15 04:32:54
FWM5C OJAQ FlyByWire... 2024-02-13 07:35:38
FWM47 OEJN ToLissA320... 2024-01-30 20:26:51
FWM14 OEJN FenixA320_... 2024-01-30 20:21:26
FWM90 HSPN B737-800X... 2024-01-16 16:34:17
FWM90 OJAQ ToLissA319... 2024-01-12 09:33:28
FWM90 DAAE ToLissA321... 2024-01-11 16:28:58
FWM90 OJAI B737-800X... 2023-12-02 10:04:25
FWM90 HDAM Flight Fac... 2023-11-21 13:48:55
FBA90 OLBA Boeing 737... 2023-11-13 08:25:58
FWM90 VQPR Flight Fac... 2023-11-01 14:27:12
MEA90 OLBA ToLissA319... 2023-10-16 18:12:09
IAW90 ORSU Flight Fac... 2023-10-10 20:45:48
FWM90 VQPR ToLissA321... 2023-09-12 15:14:59
FWM741 OLBA ToLissA320... 2023-09-07 13:09:58
RJA90 ORER ToLissA346... 2023-09-06 17:50:47
FWM741 EKCH ToLissA320... 2023-09-05 14:55:21
RJA90 HECA iniSimulat... 2023-09-02 20:23:50
RJA90 OJAQ B737-800X... 2023-09-02 16:41:56
FWM741 OEJN ToLissA320... 2023-09-02 19:29:14
RJA90 OLBA ToLissA321... 2023-09-01 17:30:51
RJA90 EKCH ToLissA321... 2023-09-01 15:38:54
FWM741 LEMD ToLissA320... 2023-09-01 12:09:27
RJA90 KJFK ToLissA346... 2023-08-18 15:45:47
FWM741 OSAP PMDG 737-6... 2023-08-06 21:26:58
FWM7MR OSAP B737-800X... 2023-08-05 01:16:52
RJA90 OEJN SSG_B748_A... 2023-08-04 14:18:23
RJA90 LEMD ToLissA321... 2023-08-01 18:20:42
FWM741 OEJN ToLissA320... 2023-07-31 10:13:58
FWM1980 OEJN FenixA320_... 2023-07-30 10:05:17
FWM06 OSAP ToLissA319... 2023-07-23 13:25:44

Runway Information (Airport elevation: 2,370ft)

Runway 08L Length 12,020ft Width 202ft Elevation 2,370ft Surface Asphalt Heading 80
Runway 08R Length 12,004ft Width 199ft Elevation 2,370ft Surface Asphalt Heading 80
Runway 26L Length 12,004ft Width 199ft Elevation 2,370ft Surface Asphalt Heading 260
Runway 26R Length 12,020ft Width 202ft Elevation 2,370ft Surface Asphalt Heading 260

Airport Frequencies

Type APP/DEP Frequency 128.900 Mhz
Type ATIS Frequency 127.600 Mhz
Type Tower Frequency 119.800 Mhz
Type CTR Frequency 121.400 Mhz
Type CTR Frequency 122.150 Mhz
Type CTR Frequency 132.050 Mhz
Type Ground Frequency 121.900 Mhz

Airport Navaids

Type NDB Ident MDB Frequency 399 Khz
Type NDB Ident QA Frequency 410 Khz
Type VOR-DME Ident QAA Frequency 115200 Khz